Neptune Avra — 9HKH6 — position and weather

sailwx.info

Track history (hours):
 
Tides and Currents Weather Stations Pressure Air Temp Water Temp Dewpoint Dewpoint Depression Visibility Wind Speed Wind Dir Waves Ship Positions

Neptune Avra

Last reported at 2014-Sep-14 21:21 UTC. Time now 2014-Sep-17 11:35 UTC.
Position N 36°37' W 000°49'.

Length 155 m; draft 6.4 m.

Type: Cargo ship. MMSI: 248598000.

Date/timePositionNaut miles runAvg speedWind from/ knotsBaromVisibWave heightAir tempDewpointWater temp
2014-Sep-14 21:21N 36°37' W 000°49'1114.3
2014-Sep-14 20:33N 36°39' W 000°35'1514.7
2014-Sep-14 19:33N 36°41' W 000°17'1514.9
2014-Sep-14 18:33N 36°44' E 000°02'1514.7
2014-Sep-14 17:33N 36°47' E 000°20'1414.2
2014-Sep-14 16:32N 36°49' E 000°37'1414.0
2014-Sep-14 15:34N 36°52' E 000°54'1413.8
2014-Sep-14 14:33N 36°53' E 001°12'1414.2
2014-Sep-14 13:33N 36°56' E 001°29'1414.4
2014-Sep-14 12:33N 36°58' E 001°47'1514.6
2014-Sep-14 11:32N 37°00' E 002°05'1515.0
2014-Sep-14 10:33N 37°02' E 002°23'1515.3
2014-Sep-14 09:33N 37°04' E 002°42'2914.7
2014-Sep-14 07:33N 37°07' E 003°19'1414.1
2014-Sep-14 06:32N 37°08' E 003°37'25715.1
2014-Sep-13 13:32N 37°37' E 008°58'22114.7
2014-Sep-12 22:32N 36°56' E 013°31'1515.4
2014-Sep-12 21:33N 36°52' E 013°49'1515.2
2014-Sep-12 20:33N 36°47' E 014°07'1515.4
2014-Sep-12 19:33N 36°43' E 014°26'1615.7
2014-Sep-12 18:31N 36°39' E 014°45'1415.0
2014-Sep-12 17:33N 36°35' E 015°02'  
2014-Sep-08 10:18N 36°39' E 014°42'1216.1
2014-Sep-08 09:33N 36°41' E 014°27'1715.9
2014-Sep-08 08:29N 36°45' E 014°07'1415.6
2014-Sep-08 07:33N 36°48' E 013°49'1615.9
2014-Sep-08 06:33N 36°52' E 013°29'11715.9
2014-Sep-07 23:13N 37°22' E 011°08'1216.0
2014-Sep-07 22:30N 37°25' E 010°54'1516.1
2014-Sep-07 21:33N 37°29' E 010°35'1616.1
2014-Sep-07 20:33N 37°33' E 010°16'1616.1
2014-Sep-07 19:33N 37°34' E 009°55'1616.1
2014-Sep-07 18:33N 37°35' E 009°35'1616.1
2014-Sep-07 17:33N 37°36' E 009°15'1616.3
2014-Sep-07 16:33N 37°37' E 008°54'1615.8
2014-Sep-07 15:32N 37°35' E 008°34'2215.9
2014-Sep-07 14:11N 37°32' E 008°07'1616.5
2014-Sep-07 13:14N 37°31' E 007°47'3116.5
2014-Sep-07 11:22N 37°27' E 007°09'6415.9
2014-Sep-07 07:22N 37°19' E 005°50'1915.7
2014-Sep-07 06:08N 37°17' E 005°25'5816.0
2014-Sep-07 02:31N 37°10' E 004°14'1616.2
2014-Sep-07 01:31N 37°09' E 003°53'1616.1
2014-Sep-07 00:30N 37°07' E 003°33'1515.9
2014-Sep-06 23:33N 37°05' E 003°14'1616.3
2014-Sep-06 22:33N 37°03' E 002°54'1716.6
2014-Sep-06 21:33N 36°60' E 002°33'1615.9
2014-Sep-06 20:33N 36°57' E 002°14'1616.2
2014-Sep-06 19:33N 36°55' E 001°54'1616.2
2014-Sep-06 18:33N 36°52' E 001°33'1815.8
2014-Sep-06 17:26N 36°49' E 001°12'1416.0
2014-Sep-06 16:32N 36°46' E 000°54'1916.7
2014-Sep-06 15:25N 36°44' E 000°31'1516.7
2014-Sep-06 14:33N 36°42' E 000°13'2216.3
2014-Sep-06 13:12N 36°38' W 000°14'1116.7
2014-Sep-06 12:32N 36°36' W 000°27'236 6.5
2014-Sep-05 00:12N 36°01' W 005°16'  
Track history (hours):
 
Tides and Currents Weather Stations Pressure Air Temp Water Temp Dewpoint Dewpoint Depression Visibility Wind Speed Wind Dir Waves Ship Positions

Neptune Avra

Last reported at 2014-Sep-14 21:21 UTC. Time now 2014-Sep-17 11:35 UTC.
Position N 36°37' W 000°49'.

Length 155 m; draft 6.4 m.

Type: Cargo ship. MMSI: 248598000.

Date/timePositionNaut miles runAvg speedWind from/ knotsBaromVisibWave heightAir tempDewpointWater temp
2014-Sep-14 21:21N 36°37' W 000°49'1114.3
2014-Sep-14 20:33N 36°39' W 000°35'1514.7
2014-Sep-14 19:33N 36°41' W 000°17'1514.9
2014-Sep-14 18:33N 36°44' E 000°02'1514.7
2014-Sep-14 17:33N 36°47' E 000°20'1414.2
2014-Sep-14 16:32N 36°49' E 000°37'1414.0
2014-Sep-14 15:34N 36°52' E 000°54'1413.8
2014-Sep-14 14:33N 36°53' E 001°12'1414.2
2014-Sep-14 13:33N 36°56' E 001°29'1414.4
2014-Sep-14 12:33N 36°58' E 001°47'1514.6
2014-Sep-14 11:32N 37°00' E 002°05'1515.0
2014-Sep-14 10:33N 37°02' E 002°23'1515.3
2014-Sep-14 09:33N 37°04' E 002°42'2914.7
2014-Sep-14 07:33N 37°07' E 003°19'1414.1
2014-Sep-14 06:32N 37°08' E 003°37'25715.1
2014-Sep-13 13:32N 37°37' E 008°58'22114.7
2014-Sep-12 22:32N 36°56' E 013°31'1515.4
2014-Sep-12 21:33N 36°52' E 013°49'1515.2
2014-Sep-12 20:33N 36°47' E 014°07'1515.4
2014-Sep-12 19:33N 36°43' E 014°26'1615.7
2014-Sep-12 18:31N 36°39' E 014°45'1415.0
2014-Sep-12 17:33N 36°35' E 015°02'  
2014-Sep-08 10:18N 36°39' E 014°42'1216.1
2014-Sep-08 09:33N 36°41' E 014°27'1715.9
2014-Sep-08 08:29N 36°45' E 014°07'1415.6
2014-Sep-08 07:33N 36°48' E 013°49'1615.9
2014-Sep-08 06:33N 36°52' E 013°29'11715.9
2014-Sep-07 23:13N 37°22' E 011°08'1216.0
2014-Sep-07 22:30N 37°25' E 010°54'1516.1
2014-Sep-07 21:33N 37°29' E 010°35'1616.1
2014-Sep-07 20:33N 37°33' E 010°16'1616.1
2014-Sep-07 19:33N 37°34' E 009°55'1616.1
2014-Sep-07 18:33N 37°35' E 009°35'1616.1
2014-Sep-07 17:33N 37°36' E 009°15'1616.3
2014-Sep-07 16:33N 37°37' E 008°54'1615.8
2014-Sep-07 15:32N 37°35' E 008°34'2215.9
2014-Sep-07 14:11N 37°32' E 008°07'1616.5
2014-Sep-07 13:14N 37°31' E 007°47'3116.5
2014-Sep-07 11:22N 37°27' E 007°09'6415.9
2014-Sep-07 07:22N 37°19' E 005°50'1915.7
2014-Sep-07 06:08N 37°17' E 005°25'5816.0
2014-Sep-07 02:31N 37°10' E 004°14'1616.2
2014-Sep-07 01:31N 37°09' E 003°53'1616.1
2014-Sep-07 00:30N 37°07' E 003°33'1515.9
2014-Sep-06 23:33N 37°05' E 003°14'1616.3
2014-Sep-06 22:33N 37°03' E 002°54'1716.6
2014-Sep-06 21:33N 36°60' E 002°33'1615.9
2014-Sep-06 20:33N 36°57' E 002°14'1616.2
2014-Sep-06 19:33N 36°55' E 001°54'1616.2
2014-Sep-06 18:33N 36°52' E 001°33'1815.8
2014-Sep-06 17:26N 36°49' E 001°12'1416.0
2014-Sep-06 16:32N 36°46' E 000°54'1916.7
2014-Sep-06 15:25N 36°44' E 000°31'1516.7
2014-Sep-06 14:33N 36°42' E 000°13'2216.3
2014-Sep-06 13:12N 36°38' W 000°14'1116.7
2014-Sep-06 12:32N 36°36' W 000°27'236 6.5
2014-Sep-05 00:12N 36°01' W 005°16'  

Dump ship's entire track history